This is the latest recevied weather packets stored in our database for station/object CYQX. If no packets are shown the sender has not sent any weather packets the latest 1 day(s).
| Time | Temp. | Humidity | Pressure | Rain* | Wind** | Luminosity | Snow |
|---|---|---|---|---|---|---|---|
| 1778037198 | 8.89° C | 66% | 1014.6 hPa | - | - | - | - |
| 1778036597 | 8.89° C | 70% | 1013.9 hPa | - | - | - | - |
| 1778035998 | 8.89° C | 70% | 1013.9 hPa | - | - | - | - |
| 1778035398 | 8.89° C | 70% | 1013.9 hPa | - | - | - | - |
| 1778034797 | 8.89° C | 70% | 1013.9 hPa | - | - | - | - |
| 1778034199 | 8.89° C | 70% | 1013.9 hPa | - | - | - | - |
| 1778033599 | 8.89° C | 70% | 1013.9 hPa | - | - | - | - |
| 1778033000 | 10° C | 66% | 1013.5 hPa | - | - | - | - |
| 1778032399 | 10° C | 66% | 1013.5 hPa | - | - | - | - |
| 1778031799 | 10° C | 66% | 1013.5 hPa | - | - | - | - |
| 1778031199 | 10° C | 66% | 1013.5 hPa | - | - | - | - |
| 1778030597 | 10° C | 66% | 1013.5 hPa | - | - | - | - |
| 1778030000 | 10° C | 66% | 1013.5 hPa | - | - | - | - |
| 1778029397 | 10° C | 57% | 1012.5 hPa | - | - | - | - |
| 1778028198 | 10° C | 57% | 1012.5 hPa | - | - | - | - |
| 1778026997 | 10° C | 57% | 1012.5 hPa | - | - | - | - |
| 1778026403 | 10° C | 57% | 1012.5 hPa | - | - | - | - |
| 1778024001 | 10.56° C | 50% | 1011.9 hPa | - | - | - | - |
| 1778021603 | 12.78° C | 47% | 1010.8 hPa | - | - | - | - |
| 1778020998 | 12.78° C | 47% | 1010.8 hPa | - | - | - | - |
| 1778019199 | 12.78° C | 47% | 1010.8 hPa | - | - | - | - |
| 1778018720 | 15° C | 38% | 1010.2 hPa | - | - | - | - |
* Rain since midnight (hover to see other rain measurements)
** Current wind speed in m/s (hover to see current wind gust speed)